Flight Track Log - Related Links

Times and Time Zones

All times are in EDT time to prevent confusion due to time zone crossing. See the JBU749 flight status page for this flight to view local times or setup timezone preferences in your user account.

Time Position Orientation Groundspeed Altitude Reporting Facility
EDT Latitude Longitude Course Direction KTS MPH feet Rate Location/Type
Thu 09:33:37 PM 28.4167 -81.3167 148° Southeast 163 188 900  Level Orlando TRACON
Thu 09:34:25 PM 28.3833 -81.2833 139° Southeast 215 247 1,900 2,086 Climbing Orlando TRACON
Thu 09:38:00 PM 28.1020 -80.7210 149° Southeast  Level Estimated
Thu 09:39:00 PM 28.0362 -80.6038 148° Southeast  Level Estimated
Thu 09:40:11 PM 28.1410 -80.8170 139° Southeast 377 434 14,600  Level FlightAware ADS-B
Thu 09:40:59 PM 28.0750 -80.7440 136° Southeast 393 452 16,200 1,884 Climbing FlightAware ADS-B
Thu 09:41:37 PM 28.0270 -80.6890 135° Southeast 395 455 17,300 1,663 Climbing FlightAware ADS-B
Thu 09:42:22 PM 27.9680 -80.6240 136° Southeast 410 472 18,500 1,786 Climbing FlightAware ADS-B
Thu 09:43:01 PM 27.9180 -80.5670 135° Southeast 413 475 19,800 1,694 Climbing FlightAware ADS-B
Thu 09:43:47 PM 27.8550 -80.4970 136° Southeast 417 480 20,900 1,152 Climbing FlightAware ADS-B
Thu 09:44:40 PM 27.7880 -80.4200 135° Southeast 416 479 21,700 1,533 Climbing FlightAware ADS-B
Thu 09:45:17 PM 27.7280 -80.3550 136° Southeast 431 496 23,200 1,862 Climbing FlightAware ADS-B
Thu 09:46:07 PM 27.6530 -80.2720 136° Southeast 436 502 24,400 1,416 Climbing FlightAware ADS-B
Thu 09:46:46 PM 27.5980 -80.2100 135° Southeast 433 498 25,300 1,212 Climbing FlightAware ADS-B
Thu 09:47:46 PM 27.5080 -80.1110 136° Southeast 448 516 26,400 1,129 Climbing FlightAware ADS-B
Thu 09:48:27 PM 27.4490 -80.0460 136° Southeast 454 522 27,200 1,200 Climbing FlightAware ADS-B
Thu 09:49:06 PM 27.3890 -79.9790 135° Southeast 457 526 28,000 1,129 Climbing FlightAware ADS-B
Thu 09:49:52 PM 27.3190 -79.9030 136° Southeast 456 525 28,800 906 Climbing FlightAware ADS-B
Thu 09:50:52 PM 27.2270 -79.8000 135° Southeast 467 537 29,600 981 Climbing FlightAware ADS-B
Thu 09:51:36 PM 27.1700 -79.7110 126° Southeast 467 537 30,500 1,326 Climbing FlightAware ADS-B
Thu 09:52:18 PM 27.1230 -79.6290 123° Southeast 459 528 31,500 1,407 Climbing FlightAware ADS-B
Thu 09:52:57 PM 27.0770 -79.5490 123° Southeast 454 522 32,400 1,823 Climbing FlightAware ADS-B
Thu 09:53:37 PM 27.0320 -79.4720 123° Southeast 439 505 33,900 1,500 Climbing FlightAware ADS-B
Thu 09:54:17 PM 26.9870 -79.3960 124° Southeast 442 509 34,400 944 Climbing FlightAware ADS-B
Thu 09:55:06 PM 26.9310 -79.3010 123° Southeast 437 503 35,300 673 Climbing FlightAware ADS-B
Thu 09:55:55 PM 26.9080 -79.2630 124° Southeast 438 504 35,500 563 Climbing FlightAware ADS-B
Thu 09:56:42 PM 26.8240 -79.1200 123° Southeast 443 510 36,200 725 Climbing FlightAware ADS-B
Thu 09:57:26 PM 26.7730 -79.0340 124° Southeast 442 509 36,600 494 Climbing FlightAware ADS-B
Thu 09:58:07 PM 26.7270 -78.9580 124° Southeast 442 509 36,900 293 Climbing FlightAware ADS-B
Thu 09:58:48 PM 26.6790 -78.8760 123° Southeast 446 513 37,000 72 Climbing FlightAware ADS-B
Thu 09:59:30 PM 26.6330 -78.7990 124° Southeast 446 513 37,000  Level FlightAware ADS-B
Thu 10:00:09 PM 26.5870 -78.7230 124° Southeast 442 509 37,000  Level FlightAware ADS-B
Thu 10:00:48 PM 26.5420 -78.6480 124° Southeast 441 507 37,000 -61 Level FlightAware ADS-B
Thu 10:01:48 PM 26.4750 -78.5370 124° Southeast 439 505 36,900  Descending FlightAware ADS-B
Thu 10:02:33 PM 26.4240 -78.4520 124° Southeast 441 507 37,000 71 Climbing FlightAware ADS-B
Thu 10:03:13 PM 26.3770 -78.3730 124° Southeast 439 505 37,000  Level FlightAware ADS-B
Thu 10:03:57 PM 26.3270 -78.2900 124° Southeast 442 509 37,000  Level FlightAware ADS-B
Thu 10:04:38 PM 26.2780 -78.2100 124° Southeast 445 512 37,000  Level FlightAware ADS-B
Thu 10:05:23 PM 26.2270 -78.1260 124° Southeast 447 514 37,000  Level FlightAware ADS-B
Thu 10:06:02 PM 26.1850 -78.0580 125° Southeast 447 514 37,000  Level FlightAware ADS-B
Thu 10:06:42 PM 26.1340 -77.9730 124° Southeast 447 514 37,000  Level FlightAware ADS-B
Thu 10:07:27 PM 26.0820 -77.8890 125° Southeast 447 514 37,000  Level FlightAware ADS-B
Thu 10:08:08 PM 26.0370 -77.8150 124° Southeast 447 514 37,000  Level FlightAware ADS-B
Thu 10:08:48 PM 25.9880 -77.7340 124° Southeast 448 516 37,000  Level FlightAware ADS-B
Thu 10:09:32 PM 25.9350 -77.6480 124° Southeast 448 516 37,000  Level FlightAware ADS-B
Thu 10:10:26 PM 25.8850 -77.5650 124° Southeast 454 522 37,000  Level FlightAware ADS-B
Thu 10:11:55 PM 25.7960 -77.4190 124° Southeast 454 522 37,000  Level FlightAware ADS-B
Thu 10:14:42 PM 25.5690 -77.0540 125° Southeast 444 511 37,000  Level FlightAware ADS-B
Thu 10:15:37 PM 25.5150 -76.9630 123° Southeast 444 511 37,000  Level FlightAware ADS-B
Thu 10:15:49 PM 25.5040 -76.9440 123° Southeast 444 511 37,000  Level FlightAware ADS-B
Thu 10:18:16 PM 25.3640 -76.7050 123° Southeast 444 511 37,000  Level FlightAware ADS-B
Thu 10:19:09 PM 25.3130 -76.6200 124° Southeast 444 511 37,000  Level FlightAware ADS-B
Thu 10:19:44 PM 25.2800 -76.5630 123° Southeast 444 511 37,000  Level FlightAware ADS-B
Thu 10:20:32 PM 25.2340 -76.4850 123° Southeast 444 511 37,000  Level FlightAware ADS-B
Thu 10:21:08 PM 25.2000 -76.4270 123° Southeast 444 511 37,000  Level FlightAware ADS-B
Thu 10:21:56 PM 25.1540 -76.3490 123° Southeast 444 511 37,000  Level FlightAware ADS-B
Thu 10:22:32 PM 25.1200 -76.2910 123° Southeast 444 511 37,000  Level FlightAware ADS-B
Thu 10:23:19 PM 25.0750 -76.2150 123° Southeast 444 511 37,000  Level FlightAware ADS-B
Thu 10:23:57 PM 25.0390 -76.1540 123° Southeast 444 511 37,000  Level FlightAware ADS-B
Thu 10:24:45 PM 24.9940 -76.0760 122° Southeast 444 511 37,000  Level FlightAware ADS-B
Thu 10:25:18 PM 24.9747 -75.7675 122° Southeast 452 520 37,000  Level Miami Center
Thu 10:26:19 PM 24.9256 -75.6372 113° Southeast 452 520 37,000  Level Miami Center
Thu 10:27:19 PM 24.8786 -75.5072 112° Southeast 458 527 37,000  Level Miami Center
Thu 10:28:20 PM 24.8333 -75.3772 111° Southeast 458 527 37,000  Level Miami Center
Thu 10:29:20 PM 24.7839 -75.2406 112° Southeast 458 527 37,000  Level Miami Center
Thu 10:30:18 PM 24.7344 -75.1131 113° Southeast 458 527 37,000  Level Miami Center
Thu 10:31:18 PM 24.6642 -74.9997 124° Southeast 450 518 37,000  Level Miami Center
Thu 10:32:18 PM 24.5894 -74.8889 127° Southeast 450 518 37,000  Level Miami Center
Thu 10:33:19 PM 24.5086 -74.7736 128° Southeast 458 527 37,000  Level Miami Center
Thu 10:34:18 PM 24.4317 -74.6608 127° Southeast 464 534 37,000  Level Miami Center
Thu 10:35:19 PM 24.3483 -74.5392 127° Southeast 458 527 37,000  Level Miami Center
Thu 10:36:20 PM 24.2692 -74.4289 128° Southeast 458 527 37,000  Level Miami Center
Thu 10:37:18 PM 24.1919 -74.3144 126° Southeast 458 527 37,000  Level Miami Center
Thu 10:38:18 PM 24.1128 -74.2022 128° Southeast 458 527 37,000  Level Miami Center
Thu 10:39:18 PM 24.0356 -74.0900 127° Southeast 458 527 37,000  Level Miami Center
Thu 10:40:20 PM 23.9561 -73.9758 127° Southeast 464 534 37,000  Level Miami Center
Thu 10:41:18 PM 23.8764 -73.8642 128° Southeast 470 541 37,000  Level Miami Center
Thu 10:42:19 PM 23.7928 -73.7481 128° Southeast 475 547 37,000  Level Miami Center
Thu 10:43:20 PM 23.7172 -73.6364 126° Southeast 470 541 37,000  Level Miami Center
Thu 10:44:18 PM 23.6353 -73.5228 128° Southeast 470 541 37,000  Level Miami Center
Thu 10:45:20 PM 23.5533 -73.4072 128° Southeast 476 548 37,000  Level Miami Center
Thu 10:46:18 PM 23.4756 -73.2939 127° Southeast 476 548 37,000  Level Miami Center
Thu 10:47:17 PM 23.3911 -73.1808 129° Southeast 476 548 37,000  Level Miami Center
Thu 10:48:19 PM 23.3153 -73.0700 127° Southeast 476 548 37,000  Level Miami Center
Thu 10:49:19 PM 23.2311 -72.9550 129° Southeast 476 548 37,000  Level Miami Center
Thu 10:50:20 PM 23.1547 -72.8397 126° Southeast 476 548 37,000  Level Miami Center
Thu 10:51:18 PM 23.0786 -72.7247 126° Southeast 476 548 37,000  Level Miami Center
Thu 10:52:20 PM 23.0022 -72.6078 125° Southeast 471 542 37,000  Level Miami Center
Thu 10:53:18 PM 22.9239 -72.4953 127° Southeast 471 542 37,000  Level Miami Center
Thu 10:54:18 PM 22.8453 -72.3786 126° Southeast 471 542 37,000  Level Miami Center
Thu 10:55:18 PM 22.7708 -72.2619 125° Southeast 471 542 37,000  Level Miami Center
Thu 10:56:19 PM 22.6922 -72.1478 127° Southeast 471 542 37,000  Level Miami Center
Thu 10:57:20 PM 22.6156 -72.0358 127° Southeast 471 542 37,000  Level Miami Center
Thu 10:58:18 PM 22.5389 -71.9264 127° Southeast 471 542 37,000  Level Miami Center
Thu 10:59:18 PM 22.4622 -71.8125 126° Southeast 471 542 37,000  Level Miami Center
Thu 11:00:18 PM 22.3875 -71.7008 126° Southeast 471 542 37,000  Level Miami Center
Thu 11:01:19 PM 22.3083 -71.5850 126° Southeast 471 542 37,000  Level Miami Center
Thu 11:02:18 PM 22.2333 -71.4739 126° Southeast 471 542 37,000  Level Miami Center
Thu 11:03:19 PM 22.1631 -71.3736 127° Southeast 471 542 37,000  Level Miami Center
Thu 11:04:18 PM 22.0839 -71.2583 127° Southeast 471 542 37,000  Level Miami Center
Thu 11:05:19 PM 22.0044 -71.1431 127° Southeast 476 548 37,000  Level Miami Center
Thu 11:06:18 PM 21.9269 -71.0278 126° Southeast 476 548 37,000  Level Miami Center
Thu 11:07:19 PM 21.8453 -70.9108 127° Southeast 476 548 37,000  Level Miami Center
Thu 11:08:17 PM 21.7658 -70.7961 127° Southeast 476 548 37,000  Level Miami Center
Thu 11:09:18 PM 21.6839 -70.6817 128° Southeast 481 554 37,000  Level Miami Center
Thu 11:10:18 PM 21.6022 -70.5672 127° Southeast 481 554 37,000  Level Miami Center
Thu 11:11:20 PM 21.5222 -70.4528 127° Southeast 481 554 37,000  Level Miami Center
Thu 11:12:18 PM 21.4425 -70.3408 127° Southeast 481 554 37,000  Level Miami Center
Thu 11:13:17 PM 21.3606 -70.2267 128° Southeast 481 554 37,000  Level Miami Center
Thu 11:14:18 PM 21.2806 -70.1150 128° Southeast 476 548 37,000  Level Miami Center
Thu 11:15:19 PM 21.1986 -70.0014 128° Southeast 471 542 37,000  Level Miami Center
Thu 11:16:20 PM 21.1183 -69.8856 127° Southeast 477 549 37,000  Level Miami Center
Thu 11:17:19 PM 21.0358 -69.7722 128° Southeast 477 549 37,000  Level Miami Center
Thu 11:18:17 PM 20.9558 -69.6611 128° Southeast 477 549 37,000  Level Miami Center
Thu 11:23:46 PM 20.5030 -69.0120 128° Southeast 488 562 37,000  Level FlightAware ADS-B
Thu 11:24:30 PM 20.4430 -68.9290 128° Southeast 488 562 37,000  Level FlightAware ADS-B
Thu 11:25:35 PM 20.3680 -68.8230 127° Southeast 488 562 37,000  Level FlightAware ADS-B
Thu 11:26:14 PM 20.3010 -68.7310 128° Southeast 488 562 37,000  Level FlightAware ADS-B
Thu 11:27:02 PM 20.2350 -68.6410 128° Southeast 487 560 37,000  Level FlightAware ADS-B
Thu 11:27:40 PM 20.1820 -68.5670 127° Southeast 487 560 37,000  Level FlightAware ADS-B
Thu 11:28:18 PM 20.1310 -68.4970 128° Southeast 487 560 37,000  Level FlightAware ADS-B
Thu 11:29:06 PM 20.0630 -68.4030 128° Southeast 485 558 37,000  Level FlightAware ADS-B
Thu 11:29:50 PM 20.0040 -68.3220 128° Southeast 482 555 37,000  Level FlightAware ADS-B
Thu 11:30:30 PM 19.9480 -68.2450 128° Southeast 481 554 37,000  Level FlightAware ADS-B
Thu 11:31:24 PM 19.8750 -68.1450 128° Southeast 481 554 37,000  Level FlightAware ADS-B
Thu 11:32:03 PM 19.8290 -68.0810 127° Southeast 482 555 37,000  Level FlightAware ADS-B
Thu 11:32:50 PM 19.7580 -67.9850 128° Southeast 480 552 37,000 -133 Level FlightAware ADS-B
Thu 11:33:33 PM 19.7000 -67.9050 128° Southeast 476 548 36,800 -439 Descending FlightAware ADS-B
Thu 11:34:12 PM 19.6600 -67.8510 128° Southeast 476 548 36,400 -1,714 Descending FlightAware ADS-B
Thu 11:34:57 PM 19.5880 -67.7520 128° Southeast 484 557 34,400 -2,692 Descending FlightAware ADS-B
Thu 11:35:30 PM 19.5400 -67.6870 128° Southeast 487 560 32,900 -2,593 Descending FlightAware ADS-B
Thu 11:36:18 PM 19.4740 -67.5970 128° Southeast 485 558 30,900 -2,333 Descending FlightAware ADS-B
Thu 11:37:00 PM 19.4150 -67.5170 128° Southeast 477 549 29,400 -2,182 Descending FlightAware ADS-B
Thu 11:37:46 PM 19.3550 -67.4350 128° Southeast 469 540 27,700 -2,233 Descending FlightAware ADS-B
Thu 11:38:26 PM 19.3010 -67.3620 128° Southeast 463 533 26,200 -2,268 Descending FlightAware ADS-B
Thu 11:39:08 PM 19.2450 -67.2860 128° Southeast 455 524 24,600 -2,233 Descending FlightAware ADS-B
Thu 11:39:52 PM 19.1890 -67.2110 128° Southeast 445 512 23,000 -2,214 Descending FlightAware ADS-B
Thu 11:40:32 PM 19.1390 -67.1440 128° Southeast 433 498 21,500 -2,286 Descending FlightAware ADS-B
Thu 11:41:16 PM 19.0850 -67.0710 128° Southeast 421 484 19,800 -2,286 Descending FlightAware ADS-B
Thu 11:41:56 PM 19.0380 -67.0070 128° Southeast 406 467 18,300 -1,537 Descending FlightAware ADS-B
Thu 11:42:38 PM 18.9940 -66.9480 128° Southeast 403 464 17,700 -462 Descending FlightAware ADS-B
Thu 11:43:14 PM 18.9590 -66.9010 128° Southeast 403 464 17,700 -2,927 Level FlightAware ADS-B
Thu 11:44:00 PM 18.8990 -66.8210 128° Southeast 373 429 13,700 -3,750 Descending FlightAware ADS-B
Thu 11:44:42 PM 18.8550 -66.7620 128° Southeast 362 417 12,200 -2,093 Descending FlightAware ADS-B
Thu 11:45:26 PM 18.8110 -66.7030 128° Southeast 349 402 10,700 -1,214 Descending FlightAware ADS-B
Thu 11:46:06 PM 18.7730 -66.6510 128° Southeast 306 352 10,500 -651 Descending FlightAware ADS-B
Thu 11:46:49 PM 18.7370 -66.6040 129° Southeast 286 329 9,800 -1,000 Descending FlightAware ADS-B
Thu 11:47:18 PM 18.7150 -66.5730 127° Southeast 275 316 9,300 -892 Descending FlightAware ADS-B
Thu 11:48:03 PM 18.6830 -66.5300 128° Southeast 273 314 8,700 -514 Descending FlightAware ADS-B
Thu 11:48:28 PM 18.6670 -66.5070 126° Southeast 273 314 8,700  Level FlightAware ADS-B
Thu 11:48:52 PM 18.6510 -66.4860 129° Southeast 273 314 8,700  Level FlightAware ADS-B
Thu 11:49:27 PM 18.6290 -66.4540 126° Southeast 273 314 8,700 -1,889 Level FlightAware ADS-B
Thu 11:51:34 PM 18.5230 -66.3180 129° Southeast 247 284 3,600 -2,129 Descending FlightAware ADS-B
Thu 11:52:02 PM 18.5020 -66.2900 128° Southeast 245 282 3,200 -750 Descending FlightAware ADS-B
Thu 11:52:22 PM 18.4890 -66.2720 127° Southeast 246 283 3,000 -261 Descending FlightAware ADS-B
Thu 11:52:48 PM 18.4730 -66.2510 129° Southeast 246 283 3,000 -677 Level FlightAware ADS-B
Thu 11:53:24 PM 18.4460 -66.2150 128° Southeast 240 276 2,300 -923 Descending FlightAware ADS-B
Thu 11:53:40 PM 18.4360 -66.1990 123° Southeast 224 258 2,200 -214 Descending FlightAware ADS-B
Thu 11:53:52 PM 18.4340 -66.1860 99° East 213 245 2,200  Level FlightAware ADS-B
Thu 11:54:34 PM 18.4340 -66.1460 90° East 185 213 2,200 -273 Level FlightAware ADS-B
Thu 11:54:58 PM 18.4340 -66.1250 90° East 179 206 1,900 -960 Descending FlightAware ADS-B
Thu 11:55:24 PM 18.4340 -66.1020 90° East 175 201 1,400 -842 Descending FlightAware ADS-B
Thu 11:55:55 PM 18.4340 -66.0780 90° East 154 177 1,100 -700 Descending FlightAware ADS-B
Thu 11:56:24 PM 18.4340 -66.0580 90° East 132 152 700 -727 Descending FlightAware ADS-B
Thu 11:57:01 PM 18.4340 -66.0350 90° East 131 151 300 -649 Descending FlightAware ADS-B
Thu 11:58:02 PM 18.4340 -66.0000 90° East 58 67 -295 Descending FlightAware ADS-B
Thu 11:58:27 PM 18.4340 -65.9940 90° East 58 67  Level FlightAware ADS-B
Fri 12:01:15 AM 18.4350 -66.0040 276° West 27 31  Level FlightAware ADS-B
Fri 12:01:41 AM 18.4350 -66.0070 270° West 27 31  Level FlightAware ADS-B

Login

Don't have an account? Register now (free) for customized features, flight alerts, and more!